Hauptseite
METAR-TAF:

METAR-TAF

Flughäfen :

Flughafen Mailand-Malpensa

Mailand, Italien

Breite: 45-37N, Länge: 008-44E, Höhe: 234 m

Beobachtung

Neuester Wetterbericht von vor 19 Minuten, um 19:50 UTC
Wind 2 kt aus unterschiedlichen Richtungen
Temperatur -4°C
Luftfeuchtigkeit 93%
Luftdruck 1019 hPa
Sichtweite: 6000 m

METAR: LIMC 151950Z VRB02KT 6000 NSC M04/M05 Q1019 NOSIG

Zeit: 21:09 (20:09 UTC)

Prognose

Neuester Wetterbericht von vor 3 Stunden und 9 Minuten, um 17:00 UTC
Gültige Prognose vom 15 um 18 UTC bis 16 um 24 UTC
Wind 5 kt aus unterschiedlichen Richtungen
Sichtweite 10 km oder mehr
Aufgelockert bewölkt in der Höhe von 2500 ft
Aufgelockert bewölkt in der Höhe von 6000 ft
Wahrscheinlichkeit 30% :
Zeitweise
vom 16 um 18 UTC bis 16 um 24 UTC
Durchbrochene Bewölkung in der Höhe von 1200 ft
Schnee leicht

TAF: LIMC 151700Z 1518/1624 VRB05KT 9999 SCT025 SCT060 PROB30 TEMPO 1618/1624 -SN BKN012

Wetterbeobachtungen und Prognosen von mehr als 4000 Flughäfen (METAR und TAF Bericht).

Die verfügbaren Stationen werden durch gelbe und rote Markierungen auf der Karte dargestellt.

Führen Sie die Maus auf sie, um den Namen der Station zu sehen.

Darauf klicken, um die Beobachtung von Wetterbeobachtungen und Prognosen zu sehen.

Um die Karte zu ändern : klicken Sie auf den grünen Tasten mit einem schwarzen Kreuz Zum Vergrößern, auf den grünen Button mit einem Gedankenstrich zu verkleinern, oder auf die grünen Pfeile für benachbarte Karten.


METAR-TAF: